Laughlin A F B, Texas
Current Conditions -  °F | °C
As of 3:58 AM on Friday 31 Oct 2014 (Local Time) from KDLF Reporting Station
Clear Clear  
Wind Chill: 63°   Ceiling: Unl
Heat Index: 63°   Visibility: 10mi
Dew Point: 59°   Wind: 7mph
Humidity: 85%   Direction: 60°ENE
Pressure: 30.1"   Gusts: NA
Location:  29.3564°N, 100.7927°W
Report Text: KDLF 310858Z AUTO 06006KT 10SM CLR 17/15 A3010 RMK AO2 SLP182 T01730148 52001 $
Loading
Personal Weather Stations






























Interactive Weather Map
Tropical Storm Tracking
New forecast layout! Learn more

10-Day Weather Forecast

Advertisements
Track Severe Weather on mobile